createdAt,value
2018-01-22T00:00:46.522Z,6.78
2018-01-22T00:03:15.419Z,6.75
2018-01-22T00:05:43.612Z,6.85
2018-01-22T00:08:12.527Z,8.15
2018-01-22T00:10:40.654Z,5.95
2018-01-22T00:13:09.533Z,6.03
2018-01-22T00:15:38.453Z,7.97
2018-01-22T00:18:07.346Z,6.37
2018-01-22T00:20:35.481Z,6.40
2018-01-22T00:23:03.607Z,6.80
2018-01-22T00:25:31.727Z,4.90
2018-01-22T00:28:00.608Z,6.15
2018-01-22T00:30:28.782Z,5.68
2018-01-22T00:32:56.895Z,4.82
2018-01-22T00:35:25.022Z,6.77
2018-01-22T00:37:53.177Z,6.60
2018-01-22T00:40:21.281Z,6.40
2018-01-22T00:42:49.409Z,6.70
2018-01-22T00:45:17.514Z,5.47
2018-01-22T00:47:46.446Z,6.03
2018-01-22T00:50:15.343Z,5.20
2018-01-22T00:52:43.455Z,5.15
2018-01-22T00:55:11.586Z,5.47
2018-01-22T00:57:39.710Z,6.57
2018-01-22T01:00:07.820Z,5.12
2018-01-22T01:02:35.933Z,4.68
2018-01-22T01:05:04.168Z,6.03
2018-01-22T01:07:32.291Z,4.93
2018-01-22T01:10:00.432Z,4.65
2018-01-22T01:12:28.585Z,5.10
2018-01-22T01:14:57.477Z,5.72
2018-01-22T01:17:25.581Z,5.95
2018-01-22T01:19:53.757Z,5.67
2018-01-22T01:22:21.859Z,6.43
2018-01-22T01:24:50.729Z,5.65
2018-01-22T01:27:18.856Z,5.18
2018-01-22T01:29:47.025Z,5.40
2018-01-22T01:32:15.149Z,7.12
2018-01-22T01:34:43.275Z,6.10
2018-01-22T01:37:11.388Z,7.82
2018-01-22T01:39:39.510Z,7.07
2018-01-22T01:42:07.638Z,6.75
2018-01-22T01:44:35.755Z,6.40
2018-01-22T01:47:03.866Z,7.22
2018-01-22T01:49:32.104Z,6.97
2018-01-22T01:52:00.194Z,6.60
2018-01-22T01:54:28.345Z,6.93
2018-01-22T01:56:57.189Z,6.22
2018-01-22T01:59:25.322Z,5.70
2018-01-22T02:01:53.447Z,6.07
2018-01-22T02:04:22.369Z,5.05
2018-01-22T02:06:50.546Z,6.10
2018-01-22T02:09:18.632Z,5.65
2018-01-22T02:11:46.784Z,5.80
2018-01-22T02:14:15.636Z,5.15
2018-01-22T02:16:44.564Z,5.68
2018-01-22T02:19:13.425Z,5.60
2018-01-22T02:21:41.537Z,5.80
2018-01-22T02:24:09.654Z,6.43
2018-01-22T02:26:37.798Z,5.30
2018-01-22T02:29:05.923Z,4.68
2018-01-22T02:31:34.794Z,5.07
2018-01-22T02:34:02.919Z,4.93
2018-01-22T02:36:31.076Z,5.47
2018-01-22T02:38:59.963Z,5.43
2018-01-22T02:41:28.142Z,5.03
2018-01-22T02:43:57.008Z,4.20
2018-01-22T02:46:25.891Z,3.90
2018-01-22T02:48:54.793Z,3.77
2018-01-22T02:51:22.908Z,3.75
2018-01-22T02:53:51.047Z,3.72
2018-01-22T02:56:19.912Z,3.80
2018-01-22T02:58:48.791Z,4.70
2018-01-22T03:01:17.005Z,4.57
2018-01-22T03:03:45.859Z,3.50
2018-01-22T03:06:14.752Z,4.10
2018-01-22T03:08:43.670Z,5.37
2018-01-22T03:11:12.516Z,3.70
2018-01-22T03:13:40.738Z,4.87
2018-01-22T03:16:09.585Z,4.22
2018-01-22T03:18:38.518Z,3.97
2018-01-22T03:21:06.691Z,3.75
2018-01-22T03:23:34.796Z,3.80
2018-01-22T03:26:02.909Z,3.45
2018-01-22T03:28:31.042Z,4.18
2018-01-22T03:30:59.160Z,3.65
2018-01-22T03:33:27.381Z,3.08
2018-01-22T03:35:55.488Z,3.33
2018-01-22T03:38:23.625Z,3.05
2018-01-22T03:40:51.797Z,3.42
2018-01-22T03:43:20.685Z,2.97
2018-01-22T03:45:49.557Z,3.40
2018-01-22T03:48:17.672Z,3.78
2018-01-22T03:50:45.821Z,3.00
2018-01-22T03:53:14.679Z,2.58
2018-01-22T03:55:43.591Z,2.92
2018-01-22T03:58:11.686Z,2.90
2018-01-22T04:00:39.842Z,3.20
2018-01-22T04:03:08.734Z,3.10
2018-01-22T04:05:37.585Z,3.42
2018-01-22T04:08:06.471Z,3.42
2018-01-22T04:10:34.597Z,3.55
2018-01-22T04:13:02.714Z,3.53
2018-01-22T04:15:30.990Z,3.37
2018-01-22T04:17:59.026Z,4.65
2018-01-22T04:20:27.280Z,4.20
2018-01-22T04:22:56.134Z,4.10
2018-01-22T04:25:25.033Z,3.90
2018-01-22T04:27:53.915Z,3.75
2018-01-22T04:30:22.837Z,3.85
2018-01-22T04:32:51.703Z,4.07
2018-01-22T04:35:20.594Z,3.78
2018-01-22T04:37:48.737Z,4.57
2018-01-22T04:40:16.964Z,3.97
2018-01-22T04:42:45.953Z,4.70
2018-01-22T04:45:14.842Z,3.42
2018-01-22T04:47:43.732Z,3.92
2018-01-22T04:50:12.626Z,4.55
2018-01-22T04:52:40.796Z,4.20
2018-01-22T04:55:09.668Z,5.00
2018-01-22T04:57:37.776Z,4.70
2018-01-22T05:00:05.918Z,5.10
2018-01-22T05:02:34.043Z,3.47
2018-01-22T05:05:02.274Z,4.97
2018-01-22T05:07:31.130Z,4.72
2018-01-22T05:10:00.014Z,4.53
2018-01-22T05:12:28.154Z,4.75
2018-01-22T05:14:56.258Z,4.32
2018-01-22T05:17:25.170Z,4.00
2018-01-22T05:19:54.054Z,4.83
2018-01-22T05:22:22.976Z,4.93
2018-01-22T05:24:51.087Z,5.20
2018-01-22T05:27:19.205Z,4.95
2018-01-22T05:29:47.384Z,5.07
2018-01-22T05:32:16.272Z,4.15
2018-01-22T05:34:45.133Z,4.17
2018-01-22T05:37:14.058Z,3.85
2018-01-22T05:39:42.947Z,4.70
2018-01-22T05:42:11.834Z,3.55
2018-01-22T05:44:40.825Z,3.50
2018-01-22T05:47:09.716Z,3.75
2018-01-22T05:49:38.574Z,3.63
2018-01-22T05:52:07.467Z,4.00
2018-01-22T05:54:35.581Z,4.18
2018-01-22T05:57:03.715Z,3.70
2018-01-22T05:59:31.912Z,4.25
2018-01-22T06:02:00.803Z,3.37
2018-01-22T06:04:28.911Z,3.70
2018-01-22T06:06:57.047Z,3.45
2018-01-22T06:09:25.151Z,3.00
2018-01-22T06:11:53.295Z,2.75
2018-01-22T06:14:21.409Z,3.03
2018-01-22T06:16:49.634Z,3.10
2018-01-22T06:19:18.526Z,3.67
2018-01-22T06:21:47.409Z,2.90
2018-01-22T06:24:15.587Z,3.20
2018-01-22T06:26:44.457Z,3.62
2018-01-22T06:29:12.652Z,2.85
2018-01-22T06:31:41.507Z,2.90
2018-01-22T06:34:10.409Z,2.97
2018-01-22T06:36:39.293Z,2.72
2018-01-22T06:39:08.208Z,2.75
2018-01-22T06:41:37.074Z,2.72
2018-01-22T06:44:05.993Z,3.33
2018-01-22T06:46:34.162Z,3.33
2018-01-22T06:49:03.135Z,3.37
2018-01-22T06:51:32.048Z,3.40
2018-01-22T06:54:00.896Z,2.97
2018-01-22T06:56:29.849Z,2.58
2018-01-22T06:58:57.967Z,3.12
2018-01-22T07:01:26.847Z,3.67
2018-01-22T07:03:54.983Z,2.72
2018-01-22T07:06:23.174Z,2.60
2018-01-22T07:08:51.309Z,3.00
2018-01-22T07:11:20.198Z,2.80
2018-01-22T07:13:49.081Z,2.95
2018-01-22T07:16:17.198Z,3.05
2018-01-22T07:18:46.117Z,3.17
2018-01-22T07:21:14.241Z,3.22
2018-01-22T07:23:44.547Z,3.35
2018-01-22T07:26:12.900Z,3.42
2018-01-22T07:28:41.070Z,3.00
2018-01-22T07:31:09.211Z,3.50
2018-01-22T07:33:37.335Z,3.90
2018-01-22T07:36:05.465Z,3.35
2018-01-22T07:38:34.377Z,3.53
2018-01-22T07:41:02.498Z,3.50
2018-01-22T07:43:30.635Z,3.67
2018-01-22T07:45:59.550Z,2.90
2018-01-22T07:48:27.671Z,2.72
2018-01-22T07:50:55.810Z,2.78
2018-01-22T07:53:24.007Z,3.55
2018-01-22T07:55:53.237Z,3.40
2018-01-22T07:58:21.357Z,3.00
2018-01-22T08:00:50.988Z,2.93
2018-01-22T08:03:19.123Z,2.85
2018-01-22T08:05:47.262Z,3.30
2018-01-22T08:08:15.387Z,3.17
2018-01-22T08:10:43.535Z,2.95
2018-01-22T08:13:11.675Z,3.28
2018-01-22T08:15:39.792Z,2.78
2018-01-22T08:18:07.917Z,3.10
2018-01-22T08:20:36.174Z,3.30
2018-01-22T08:23:05.087Z,5.32
2018-01-22T08:25:33.214Z,4.37
2018-01-22T08:28:01.335Z,3.50
2018-01-22T08:30:29.459Z,3.30
2018-01-22T08:32:58.374Z,3.47
2018-01-22T08:35:27.249Z,3.50
2018-01-22T08:37:56.139Z,3.17
2018-01-22T08:40:25.193Z,3.40
2018-01-22T08:42:53.334Z,14.05
2018-01-22T08:45:21.533Z,7.25
2018-01-22T08:47:49.674Z,4.85
2018-01-22T08:50:18.543Z,5.90
2018-01-22T08:52:47.444Z,3.65
2018-01-22T08:55:15.563Z,3.80
2018-01-22T08:57:43.702Z,12.98
2018-01-22T09:00:11.860Z,11.40
2018-01-22T09:02:39.994Z,5.30
2018-01-22T09:05:08.225Z,3.22
2018-01-22T09:07:36.355Z,3.70
2018-01-22T09:10:25.225Z,4.10
2018-01-22T09:12:53.356Z,3.67
2018-01-22T09:15:21.473Z,3.20
2018-01-22T09:17:49.597Z,3.12
2018-01-22T09:20:17.748Z,3.50
2018-01-22T09:22:45.907Z,2.83
2018-01-22T09:25:14.044Z,3.33
2018-01-22T09:27:42.256Z,3.17
2018-01-22T09:30:11.159Z,3.78
2018-01-22T09:32:39.285Z,3.70
2018-01-22T09:35:07.420Z,3.43
2018-01-22T09:37:35.605Z,3.67
2018-01-22T09:40:03.755Z,3.47
2018-01-22T09:42:32.685Z,3.40
2018-01-22T09:45:00.891Z,3.00
2018-01-22T09:47:29.803Z,3.47
2018-01-22T09:49:57.952Z,3.43
2018-01-22T09:52:26.838Z,4.32
2018-01-22T09:54:55.026Z,3.83
2018-01-22T09:57:23.966Z,4.28
2018-01-22T09:59:52.149Z,4.03
2018-01-22T10:02:20.394Z,4.30
2018-01-22T10:04:48.740Z,4.83
2018-01-22T10:07:16.976Z,3.90
2018-01-22T10:09:45.141Z,4.53
2018-01-22T10:12:13.295Z,4.68
2018-01-22T10:14:41.447Z,5.35
2018-01-22T10:17:10.331Z,5.55
2018-01-22T10:19:39.226Z,4.80
2018-01-22T10:22:07.382Z,5.20
2018-01-22T10:24:36.274Z,4.55
2018-01-22T10:27:05.197Z,4.50
2018-01-22T10:29:33.311Z,4.50
2018-01-22T10:32:01.442Z,4.37
2018-01-22T10:34:29.654Z,5.00
2018-01-22T10:36:57.766Z,4.25
2018-01-22T10:39:25.900Z,3.50
2018-01-22T10:41:54.236Z,3.62
2018-01-22T10:44:22.371Z,4.20
2018-01-22T10:46:51.308Z,3.90
2018-01-22T10:49:19.844Z,4.10
2018-01-22T10:51:47.996Z,3.80
2018-01-22T10:54:16.249Z,3.15
2018-01-22T10:56:44.411Z,2.95
2018-01-22T10:59:12.673Z,2.10
2018-01-22T11:01:40.818Z,2.20
2018-01-22T11:04:09.703Z,3.83
2018-01-22T11:06:38.730Z,4.90
2018-01-22T11:09:06.930Z,4.45
2018-01-22T11:11:35.205Z,3.47
2018-01-22T11:14:03.378Z,2.90
2018-01-22T11:16:31.508Z,2.25
2018-01-22T11:18:59.686Z,1.43
2018-01-22T11:21:28.581Z,1.65
2018-01-22T11:23:56.730Z,1.50
2018-01-22T11:26:25.683Z,1.25
2018-01-22T11:28:53.826Z,0.90
2018-01-22T11:31:22.026Z,1.02
2018-01-22T11:33:51.785Z,0.80
2018-01-22T11:36:19.916Z,0.65
2018-01-22T11:38:48.067Z,0.50
2018-01-22T11:41:16.246Z,0.70
2018-01-22T11:43:44.399Z,0.68
2018-01-22T11:46:12.535Z,0.80
2018-01-22T11:48:41.423Z,0.90
2018-01-22T11:51:09.561Z,0.80
2018-01-22T11:53:37.872Z,0.52
2018-01-22T11:56:06.248Z,0.70
2018-01-22T11:58:35.577Z,0.60
2018-01-22T12:01:03.746Z,1.10
2018-01-22T12:03:31.873Z,1.00
2018-01-22T12:06:00.042Z,0.88
2018-01-22T12:08:28.267Z,0.60
2018-01-22T12:10:57.129Z,0.52
2018-01-22T12:13:26.026Z,0.60
2018-01-22T12:15:54.940Z,0.93
2018-01-22T12:18:23.899Z,0.70
2018-01-22T12:20:52.202Z,0.52
2018-01-22T12:23:21.155Z,0.50
2018-01-22T12:25:49.308Z,0.80
2018-01-22T12:28:17.520Z,0.77
2018-01-22T12:30:46.498Z,0.62
2018-01-22T12:33:14.660Z,0.50
2018-01-22T12:35:42.908Z,0.52
2018-01-22T12:38:11.083Z,0.60
2018-01-22T12:40:39.363Z,0.57
2018-01-22T12:43:08.337Z,0.50
2018-01-22T12:45:36.475Z,1.20
2018-01-22T12:48:05.541Z,0.88
2018-01-22T12:50:33.716Z,0.80
2018-01-22T12:53:02.160Z,0.70
2018-01-22T12:55:31.188Z,0.68
2018-01-22T12:57:59.315Z,1.00
2018-01-22T13:00:27.454Z,1.07
2018-01-22T13:02:55.588Z,0.90
2018-01-22T13:05:23.731Z,0.60
2018-01-22T13:07:51.883Z,0.65
2018-01-22T13:10:20.786Z,0.80
2018-01-22T13:12:49.651Z,0.88
2018-01-22T13:15:18.564Z,1.65
2018-01-22T13:17:46.690Z,0.70
2018-01-22T13:20:14.811Z,0.60
2018-01-22T13:22:42.963Z,0.88
2018-01-22T13:25:11.853Z,1.15
2018-01-22T13:27:40.791Z,1.17
2018-01-22T13:30:08.919Z,0.57
2018-01-22T13:32:37.844Z,0.80
2018-01-22T13:35:06.734Z,0.90
2018-01-22T13:37:34.852Z,0.90
2018-01-22T13:40:08.643Z,1.35
2018-01-22T13:42:36.748Z,1.55
2018-01-22T13:45:05.685Z,0.68
2018-01-22T13:47:33.806Z,0.98
2018-01-22T13:50:02.064Z,1.40
2018-01-22T13:52:30.195Z,1.00
2018-01-22T13:54:58.339Z,0.80
2018-01-22T13:57:27.215Z,1.20
2018-01-22T13:59:56.112Z,0.80
2018-01-22T14:02:25.033Z,0.60
2018-01-22T14:04:53.169Z,0.90
2018-01-22T14:07:22.795Z,0.50
2018-01-22T14:09:51.702Z,0.90
2018-01-22T14:12:19.819Z,0.47
2018-01-22T14:14:47.938Z,2.10
2018-01-22T14:17:16.097Z,1.00
2018-01-22T14:19:45.010Z,1.03
2018-01-22T14:22:13.180Z,0.62
2018-01-22T14:24:41.880Z,0.70
2018-01-22T14:27:10.009Z,0.90
2018-01-22T14:29:38.326Z,1.00
2018-01-22T14:32:08.903Z,1.00
2018-01-22T14:34:37.015Z,0.80
2018-01-22T14:37:05.163Z,0.75
2018-01-22T14:39:33.457Z,1.00
2018-01-22T14:42:01.771Z,1.30
2018-01-22T14:44:29.986Z,1.15
2018-01-22T14:46:58.095Z,1.60
2018-01-22T14:49:26.234Z,2.00
2018-01-22T14:51:54.352Z,2.10
2018-01-22T14:54:23.266Z,3.15
2018-01-22T14:56:51.351Z,1.70
2018-01-22T14:59:19.470Z,1.35
2018-01-22T15:01:47.601Z,1.87
2018-01-22T15:04:15.748Z,1.05
2018-01-22T15:06:43.913Z,1.52
2018-01-22T15:09:12.049Z,1.42
2018-01-22T15:11:40.959Z,2.12
2018-01-22T15:14:09.070Z,1.10
2018-01-22T15:16:37.235Z,0.90
2018-01-22T15:19:05.350Z,0.97
2018-01-22T15:21:34.246Z,0.88
2018-01-22T15:24:03.138Z,0.90
2018-01-22T15:26:32.023Z,1.00
2018-01-22T15:29:00.957Z,2.15
2018-01-22T15:31:29.065Z,2.20
2018-01-22T15:33:57.214Z,1.90
2018-01-22T15:36:25.331Z,4.32
2018-01-22T15:38:54.262Z,2.20
2018-01-22T15:41:22.400Z,2.30
2018-01-22T15:43:50.528Z,3.00
2018-01-22T15:46:18.658Z,3.45
2018-01-22T15:48:46.793Z,2.05
2018-01-22T15:51:14.985Z,2.50
2018-01-22T15:53:43.080Z,3.10
2018-01-22T15:56:11.385Z,2.67
2018-01-22T15:58:39.485Z,3.08
2018-01-22T16:01:07.618Z,1.83
2018-01-22T16:03:35.764Z,3.40
2018-01-22T16:06:03.879Z,3.92
2018-01-22T16:08:32.026Z,6.70
2018-01-22T16:11:00.181Z,4.85
2018-01-22T16:13:29.087Z,6.55
2018-01-22T16:15:57.237Z,6.45
2018-01-22T16:18:26.129Z,7.03
2018-01-22T16:20:54.266Z,4.70
2018-01-22T16:23:22.419Z,4.15
2018-01-22T16:25:50.559Z,3.55
2018-01-22T16:28:18.687Z,2.30
2018-01-22T16:30:46.845Z,3.50
2018-01-22T16:33:14.979Z,4.03
2018-01-22T16:35:43.124Z,2.00
2018-01-22T16:38:12.013Z,2.78
2018-01-22T16:40:40.914Z,2.00
2018-01-22T16:43:09.045Z,3.55
2018-01-22T16:45:37.217Z,5.43
2018-01-22T16:48:05.370Z,2.80
2018-01-22T16:50:33.519Z,2.80
2018-01-22T16:53:01.686Z,5.90
2018-01-22T16:55:29.858Z,3.08
2018-01-22T16:57:57.971Z,6.47
2018-01-22T17:00:26.854Z,7.30
2018-01-22T17:02:54.998Z,8.75
2018-01-22T17:05:23.162Z,5.27
2018-01-22T17:07:52.066Z,5.10
2018-01-22T17:10:20.190Z,3.40
2018-01-22T17:12:49.118Z,4.15
2018-01-22T17:15:17.286Z,4.00
2018-01-22T17:17:45.401Z,2.53
2018-01-22T17:20:13.576Z,2.20
2018-01-22T17:22:41.700Z,1.90
2018-01-22T17:25:10.612Z,4.57
2018-01-22T17:27:38.729Z,3.10
2018-01-22T17:30:06.895Z,3.90
2018-01-22T17:32:35.069Z,2.30
2018-01-22T17:35:03.220Z,3.50
2018-01-22T17:37:31.359Z,4.62
2018-01-22T17:39:59.493Z,4.93
2018-01-22T17:42:27.649Z,5.72
2018-01-22T17:44:56.558Z,6.85
2018-01-22T17:47:24.705Z,5.65
2018-01-22T17:49:52.858Z,6.20
2018-01-22T17:52:20.982Z,7.75
2018-01-22T17:54:49.916Z,8.55
2018-01-22T17:57:18.056Z,5.85
2018-01-22T17:59:46.214Z,7.00
2018-01-22T18:02:14.356Z,22.17
2018-01-22T18:04:43.249Z,27.90
2018-01-22T18:07:11.397Z,11.05
2018-01-22T18:09:39.555Z,6.72
2018-01-22T18:12:07.712Z,6.40
2018-01-22T18:14:36.615Z,6.70
2018-01-22T18:17:04.760Z,7.82
2018-01-22T18:19:33.702Z,8.32
2018-01-22T18:22:01.830Z,7.60
2018-01-22T18:24:30.710Z,9.10
2018-01-22T18:26:58.863Z,7.90
2018-01-22T18:29:27.084Z,9.10
2018-01-22T18:31:55.273Z,9.43
2018-01-22T18:34:23.455Z,8.13
2018-01-22T18:36:51.592Z,7.35
2018-01-22T18:39:20.133Z,6.55
2018-01-22T18:41:48.277Z,7.47
2018-01-22T18:44:16.451Z,7.40
2018-01-22T18:46:44.595Z,7.07
2018-01-22T18:49:12.745Z,7.07
2018-01-22T18:51:40.916Z,9.85
2018-01-22T18:54:09.038Z,10.65
2018-01-22T18:56:37.195Z,10.23
2018-01-22T18:59:06.098Z,12.90
2018-01-22T19:01:34.376Z,10.33
2018-01-22T19:04:02.653Z,8.67
2018-01-22T19:06:30.778Z,8.00
2018-01-22T19:08:59.701Z,7.05
2018-01-22T19:11:27.826Z,8.43
2018-01-22T19:13:55.992Z,5.25
2018-01-22T19:16:24.982Z,6.80
2018-01-22T19:18:53.227Z,6.80
2018-01-22T19:21:21.337Z,9.13
2018-01-22T19:23:49.530Z,8.77
2018-01-22T19:26:17.665Z,10.98
2018-01-22T19:28:45.782Z,7.97
2018-01-22T19:31:14.717Z,7.25
2018-01-22T19:33:42.857Z,7.43
2018-01-22T19:36:11.064Z,7.32
2018-01-22T19:38:39.208Z,9.20
2018-01-22T19:41:08.153Z,9.90
2018-01-22T19:43:36.315Z,7.20
2018-01-22T19:46:04.476Z,8.98
2018-01-22T19:48:32.623Z,17.90
2018-01-22T19:51:00.834Z,22.00
2018-01-22T19:53:29.012Z,19.70
2018-01-22T19:55:57.203Z,40.33
2018-01-22T19:58:25.467Z,40.67
2018-01-22T20:00:53.618Z,13.53
2018-01-22T20:03:21.781Z,9.70
2018-01-22T20:05:49.923Z,11.07
2018-01-22T20:08:18.867Z,13.00
2018-01-22T20:10:47.067Z,10.70
2018-01-22T20:13:15.241Z,12.15
2018-01-22T20:15:43.415Z,11.10
2018-01-22T20:18:12.973Z,14.60
2018-01-22T20:20:41.125Z,16.67
2018-01-22T20:23:09.290Z,27.33
2018-01-22T20:25:38.344Z,20.92
2018-01-22T20:28:07.296Z,14.98
2018-01-22T20:30:35.537Z,11.02
2018-01-22T20:33:04.486Z,6.45
2018-01-22T20:35:33.414Z,5.93
2018-01-22T20:38:02.409Z,5.40
2018-01-22T20:40:30.596Z,4.32
2018-01-22T20:42:59.008Z,4.50
2018-01-22T20:45:28.009Z,4.62
2018-01-22T20:47:56.315Z,5.28
2018-01-22T20:50:24.449Z,6.10
2018-01-22T20:52:52.757Z,5.55
2018-01-22T20:55:20.939Z,6.07
2018-01-22T20:57:49.112Z,5.95
2018-01-22T21:00:17.484Z,6.45
2018-01-22T21:02:46.832Z,6.97
2018-01-22T21:05:15.883Z,7.43
2018-01-22T21:07:44.116Z,6.95
2018-01-22T21:10:12.742Z,7.75
2018-01-22T21:12:40.903Z,9.43
2018-01-22T21:15:09.094Z,9.05
2018-01-22T21:17:38.853Z,8.38
2018-01-22T21:20:06.970Z,7.87
2018-01-22T21:22:36.764Z,8.93
2018-01-22T21:25:06.018Z,8.38
2018-01-22T21:27:34.267Z,7.40
2018-01-22T21:30:02.484Z,8.75
2018-01-22T21:32:30.620Z,8.07
2018-01-22T21:34:59.834Z,8.90
2018-01-22T21:37:28.056Z,8.15
2018-01-22T21:39:56.180Z,9.18
2018-01-22T21:42:24.312Z,8.73
2018-01-22T21:44:52.474Z,8.52
2018-01-22T21:47:20.865Z,8.88
2018-01-22T21:49:49.065Z,10.17
2018-01-22T21:52:17.993Z,11.30
2018-01-22T21:54:46.130Z,9.35
2018-01-22T21:57:14.273Z,11.35
2018-01-22T21:59:42.406Z,11.27
2018-01-22T22:02:10.729Z,10.20
2018-01-22T22:04:39.155Z,10.40
2018-01-22T22:07:07.441Z,10.52
2018-01-22T22:09:35.587Z,11.05
2018-01-22T22:12:04.541Z,11.00
2018-01-22T22:14:32.716Z,12.23
2018-01-22T22:17:00.877Z,11.12
2018-01-22T22:19:29.032Z,10.60
2018-01-22T22:21:57.156Z,10.60
2018-01-22T22:24:26.200Z,8.10
2018-01-22T22:26:54.456Z,10.02
2018-01-22T22:29:22.735Z,10.57
2018-01-22T22:31:50.872Z,10.45
2018-01-22T22:34:19.810Z,11.23
2018-01-22T22:36:47.997Z,11.85
2018-01-22T22:39:16.132Z,11.77
2018-01-22T22:41:44.332Z,12.70
2018-01-22T22:44:12.517Z,11.57
2018-01-22T22:46:40.692Z,12.65
2018-01-22T22:49:08.831Z,11.63
2018-01-22T22:51:36.970Z,12.88
2018-01-22T22:54:05.859Z,10.23
2018-01-22T22:56:35.186Z,12.45
2018-01-22T22:59:03.386Z,12.15
2018-01-22T23:01:32.300Z,12.80
2018-01-22T23:04:00.447Z,12.98
2018-01-22T23:06:28.570Z,14.52
2018-01-22T23:08:57.497Z,13.73
2018-01-22T23:11:25.638Z,12.57
2018-01-22T23:13:54.530Z,11.70
2018-01-22T23:16:23.432Z,6.93
2018-01-22T23:18:52.334Z,9.73
2018-01-22T23:21:20.576Z,9.40
2018-01-22T23:23:49.481Z,5.65
2018-01-22T23:26:18.444Z,7.57
2018-01-22T23:28:46.558Z,5.55
2018-01-22T23:31:14.693Z,6.60
2018-01-22T23:33:42.823Z,7.32
2018-01-22T23:36:10.954Z,9.57
2018-01-22T23:38:39.881Z,9.38
2018-01-22T23:41:08.038Z,9.90
2018-01-22T23:43:36.177Z,9.23
2018-01-22T23:46:04.324Z,8.80
2018-01-22T23:48:32.437Z,9.38
2018-01-22T23:51:01.344Z,8.88
2018-01-22T23:53:29.487Z,8.15
2018-01-22T23:55:58.397Z,8.68
2018-01-22T23:58:27.296Z,7.78
